Time;durP1;ratioP1;P1;durP2;ratioP2;P2;SDS_P1;SDS_P2;PMS_P1;PMS_P2;Temp;Humidity;BMP_temperature;BMP_pressure;BME280_temperature;BME280_humidity;BME280_pressure;Samples;Min_cycle;Max_cycle;Signal;HPM_P1;HPM_P2
2022/02/18 00:01:47;;;;;;;9.82;2.50;;;8.10;79.20;;;;;;5006936;28;20109;-77
2022/02/18 00:04:12;;;;;;;9.60;2.28;;;8.20;79.20;;;;;;5011469;28;20041;-77
2022/02/18 00:06:38;;;;;;;14.30;3.05;;;8.20;79.10;;;;;;5005455;28;20038;-78
2022/02/18 00:09:03;;;;;;;8.20;2.38;;;8.20;79.30;;;;;;5014791;28;20084;-78
2022/02/18 00:11:32;;;;;;;8.73;2.45;;;8.20;79.20;;;;;;5016890;28;20374;-78
2022/02/18 00:13:57;;;;;;;10.18;2.50;;;8.20;79.10;;;;;;5016731;28;20639;-78
2022/02/18 00:16:24;;;;;;;14.45;2.67;;;8.20;79.10;;;;;;5015427;28;20021;-78
2022/02/18 00:18:49;;;;;;;13.00;3.05;;;8.20;79.30;;;;;;5015889;28;20037;-77
2022/02/18 00:21:18;;;;;;;10.48;2.47;;;8.20;79.30;;;;;;5011506;28;20042;-77
2022/02/18 00:23:43;;;;;;;14.88;2.50;;;8.20;79.30;;;;;;5010477;28;20032;-78
2022/02/18 00:26:10;;;;;;;9.77;2.72;;;8.20;79.20;;;;;;5011680;28;20034;-79
2022/02/18 00:28:35;;;;;;;11.20;2.30;;;8.20;79.20;;;;;;5011044;28;20045;-77
2022/02/18 00:31:01;;;;;;;13.13;2.83;;;8.30;79.10;;;;;;5020041;28;20030;-76
2022/02/18 00:33:26;;;;;;;9.50;2.50;;;8.30;79.10;;;;;;5006213;28;20572;-76
2022/02/18 00:35:55;;;;;;;13.63;3.20;;;8.30;79.10;;;;;;5009646;28;20030;-76
2022/02/18 00:38:21;;;;;;;10.95;2.60;;;8.30;79.10;;;;;;5016309;28;20025;-76
2022/02/18 00:40:46;;;;;;;13.55;3.42;;;8.30;79.20;;;;;;5019419;28;20072;-77
2022/02/18 00:43:13;;;;;;;14.35;3.30;;;8.30;79.30;;;;;;5015182;28;20022;-77
2022/02/18 00:45:39;;;;;;;13.63;3.45;;;8.30;79.20;;;;;;5010546;28;20459;-77
2022/02/18 00:48:05;;;;;;;10.50;3.28;;;8.30;79.20;;;;;;5012736;28;20033;-77
2022/02/18 00:50:30;;;;;;;13.65;3.45;;;8.30;79.20;;;;;;5012386;28;20129;-77
2022/02/18 00:52:56;;;;;;;6.07;2.22;;;8.30;79.20;;;;;;5012777;28;20408;-76
2022/02/18 00:55:22;;;;;;;7.45;2.50;;;8.40;79.10;;;;;;5013573;28;20076;-77
2022/02/18 00:57:48;;;;;;;9.00;2.42;;;8.40;79.10;;;;;;5024237;28;20037;-76
2022/02/18 01:00:16;;;;;;;8.35;2.55;;;8.40;79.10;;;;;;5020644;28;20029;-77
2022/02/18 01:02:42;;;;;;;11.82;2.28;;;8.40;79.10;;;;;;5014371;28;20025;-77
2022/02/18 01:05:08;;;;;;;8.95;2.03;;;8.40;79.10;;;;;;5018143;28;20037;-77
2022/02/18 01:07:33;;;;;;;9.63;2.20;;;8.40;79.20;;;;;;5013462;28;20095;-76
2022/02/18 01:09:59;;;;;;;12.25;2.30;;;8.40;79.10;;;;;;5008967;28;20109;-76
2022/02/18 01:12:24;;;;;;;6.47;1.92;;;8.40;79.10;;;;;;5016858;28;20378;-76
2022/02/18 01:14:51;;;;;;;9.40;2.20;;;8.40;79.10;;;;;;5009109;28;20029;-75
2022/02/18 01:17:16;;;;;;;11.07;2.67;;;8.40;79.10;;;;;;5011461;28;20513;-75
2022/02/18 01:19:42;;;;;;;9.95;2.38;;;8.40;79.10;;;;;;5023639;28;20053;-75
2022/02/18 01:22:08;;;;;;;9.40;2.38;;;8.40;79.30;;;;;;5007743;28;20021;-76
2022/02/18 01:24:33;;;;;;;12.40;2.70;;;8.30;79.30;;;;;;5017251;28;20072;-76
2022/02/18 01:26:59;;;;;;;9.40;2.50;;;8.40;79.40;;;;;;5013045;28;20772;-76
2022/02/18 01:29:25;;;;;;;10.40;2.47;;;8.30;79.60;;;;;;5018256;28;20049;-77
2022/02/18 01:31:50;;;;;;;11.27;2.30;;;8.30;79.60;;;;;;5011305;28;20057;-74
2022/02/18 01:34:16;;;;;;;9.70;2.17;;;8.30;79.60;;;;;;5025060;28;20025;-76
2022/02/18 01:36:41;;;;;;;12.45;2.35;;;8.30;79.50;;;;;;5008873;28;20022;-76
2022/02/18 01:39:07;;;;;;;9.35;2.17;;;8.30;79.60;;;;;;5016232;28;20033;-77
2022/02/18 01:41:33;;;;;;;6.85;2.05;;;8.30;79.60;;;;;;5016594;28;20019;-77
2022/02/18 01:44:00;;;;;;;10.85;2.88;;;8.30;79.60;;;;;;5009244;28;20871;-75
2022/02/18 01:46:26;;;;;;;10.60;2.70;;;8.30;79.60;;;;;;5015912;28;20041;-76
2022/02/18 01:48:54;;;;;;;8.65;2.50;;;8.30;79.60;;;;;;5017159;28;20428;-75
2022/02/18 01:51:27;;;;;;;8.27;2.20;;;8.30;79.60;;;;;;5010337;28;20053;-75
2022/02/18 01:53:54;;;;;;;6.80;1.95;;;8.30;79.60;;;;;;5014230;28;20080;-76
2022/02/18 01:56:22;;;;;;;9.25;2.28;;;8.30;79.60;;;;;;5011955;28;20042;-76
2022/02/18 01:58:48;;;;;;;7.38;2.33;;;8.30;79.70;;;;;;5007141;28;20030;-77
2022/02/18 02:01:15;;;;;;;8.50;1.92;;;8.30;79.60;;;;;;5017351;28;20029;-75
2022/02/18 02:03:41;;;;;;;8.13;2.13;;;8.30;79.50;;;;;;5013799;28;20022;-77
2022/02/18 02:06:11;;;;;;;7.68;1.83;;;8.30;79.40;;;;;;5020904;28;20040;-77
2022/02/18 02:08:37;;;;;;;9.00;2.35;;;8.40;79.40;;;;;;5023982;28;20101;-77
2022/02/18 02:11:04;;;;;;;10.77;2.30;;;8.40;79.40;;;;;;5014788;28;20025;-76
2022/02/18 02:13:38;;;;;;;7.68;2.28;;;8.40;79.30;;;;;;5004711;28;20037;-77
2022/02/18 02:16:04;;;;;;;10.75;2.10;;;8.40;79.40;;;;;;5010023;28;20030;-78
2022/02/18 02:18:31;;;;;;;11.77;2.50;;;8.40;79.40;;;;;;5013791;28;20026;-77
2022/02/18 02:20:56;;;;;;;8.20;2.28;;;8.40;79.40;;;;;;5017293;28;20045;-78
2022/02/18 02:23:23;;;;;;;9.18;2.40;;;8.40;79.30;;;;;;5010862;28;20018;-79
2022/02/18 02:25:49;;;;;;;8.98;2.50;;;8.40;79.30;;;;;;5018653;28;20088;-78
2022/02/18 02:28:14;;;;;;;10.50;2.80;;;8.40;79.30;;;;;;5017386;28;20022;-78
2022/02/18 02:30:40;;;;;;;8.75;2.40;;;8.40;79.40;;;;;;5011570;28;20033;-77
2022/02/18 02:33:06;;;;;;;14.05;2.90;;;8.40;79.40;;;;;;5003754;28;20029;-78
2022/02/18 02:35:31;;;;;;;13.32;3.17;;;8.40;79.40;;;;;;5014957;28;20055;-76
2022/02/18 02:37:57;;;;;;;15.18;3.33;;;8.30;79.50;;;;;;5011685;28;20030;-77
2022/02/18 02:40:22;;;;;;;12.20;2.70;;;8.30;79.80;;;;;;5014267;28;20022;-78
2022/02/18 02:42:48;;;;;;;7.95;2.40;;;8.30;79.90;;;;;;5016741;28;20022;-78
2022/02/18 02:45:15;;;;;;;14.73;2.80;;;8.30;79.80;;;;;;5022207;28;20041;-77
2022/02/18 02:47:45;;;;;;;9.68;2.85;;;8.30;79.80;;;;;;5018905;28;20610;-77
2022/02/18 02:50:11;;;;;;;14.48;3.00;;;8.30;79.80;;;;;;5010705;28;20022;-78
2022/02/18 02:52:40;;;;;;;11.82;3.38;;;8.30;79.90;;;;;;5008458;28;20029;-77
2022/02/18 02:55:08;;;;;;;15.30;3.30;;;8.20;80.00;;;;;;5013526;28;20384;-80
2022/02/18 02:57:33;;;;;;;12.25;2.88;;;8.20;80.10;;;;;;5011070;28;20026;-79
2022/02/18 02:59:59;;;;;;;13.48;3.13;;;8.20;80.10;;;;;;5025860;28;20055;-78
2022/02/18 03:02:25;;;;;;;15.85;3.85;;;8.30;80.10;;;;;;5015648;28;20081;-78
2022/02/18 03:04:50;;;;;;;11.40;3.20;;;8.20;80.10;;;;;;5016360;28;20034;-76
2022/02/18 03:07:16;;;;;;;16.55;4.10;;;8.20;80.30;;;;;;5013431;28;20014;-77
2022/02/18 03:09:41;;;;;;;14.98;3.70;;;8.20;80.20;;;;;;5016271;28;20064;-77
2022/02/18 03:12:07;;;;;;;13.40;4.50;;;8.20;80.30;;;;;;5012268;28;20028;-76
2022/02/18 03:14:33;;;;;;;13.10;2.88;;;8.20;80.40;;;;;;5021777;28;20018;-77
2022/02/18 03:16:58;;;;;;;14.23;4.03;;;8.20;80.40;;;;;;5014426;28;20552;-79
2022/02/18 03:19:24;;;;;;;15.25;3.75;;;8.20;80.30;;;;;;5027148;28;20044;-79
2022/02/18 03:21:51;;;;;;;9.27;3.40;;;8.20;80.30;;;;;;5012285;28;20027;-78
2022/02/18 03:24:18;;;;;;;11.32;3.67;;;8.30;80.30;;;;;;5023336;28;20026;-79
2022/02/18 03:26:43;;;;;;;13.55;3.65;;;8.30;80.30;;;;;;5007810;28;20432;-79
2022/02/18 03:29:09;;;;;;;11.18;3.20;;;8.30;80.30;;;;;;5013644;28;20021;-82
2022/02/18 03:31:35;;;;;;;16.33;4.00;;;8.40;80.20;;;;;;5017825;28;20033;-82
2022/02/18 03:34:00;;;;;;;13.65;3.40;;;8.40;80.20;;;;;;5013320;28;20087;-81
2022/02/18 03:36:26;;;;;;;10.68;2.95;;;8.40;80.20;;;;;;5022099;28;20551;-80
2022/02/18 03:38:54;;;;;;;8.75;3.22;;;8.40;80.10;;;;;;5012449;28;20034;-79
2022/02/18 03:41:19;;;;;;;15.73;3.90;;;8.40;80.00;;;;;;5018516;28;20037;-78
2022/02/18 03:43:45;;;;;;;15.30;3.20;;;8.50;80.00;;;;;;5016685;28;20026;-76
2022/02/18 03:46:10;;;;;;;14.75;3.72;;;8.50;80.00;;;;;;5009337;28;20033;-77
2022/02/18 03:48:36;;;;;;;11.90;3.30;;;8.50;80.00;;;;;;5014064;28;20029;-78
2022/02/18 03:51:02;;;;;;;11.32;2.80;;;8.50;80.00;;;;;;5016803;28;20026;-77
2022/02/18 03:53:27;;;;;;;11.60;3.25;;;8.50;79.90;;;;;;5017386;28;20472;-78
2022/02/18 03:55:54;;;;;;;13.75;3.42;;;8.60;79.90;;;;;;5015547;28;20050;-77
2022/02/18 03:58:20;;;;;;;14.70;3.58;;;8.60;79.80;;;;;;5006557;28;20035;-78
2022/02/18 04:00:46;;;;;;;14.45;3.70;;;8.60;79.90;;;;;;5010937;28;20030;-78
2022/02/18 04:03:12;;;;;;;13.25;2.90;;;8.60;79.90;;;;;;5007832;28;20527;-78
2022/02/18 04:05:37;;;;;;;12.70;3.35;;;8.60;79.90;;;;;;5016210;28;20099;-78
2022/02/18 04:08:04;;;;;;;14.60;3.53;;;8.60;79.90;;;;;;5001416;28;20805;-78
2022/02/18 04:10:29;;;;;;;15.88;3.17;;;8.60;79.90;;;;;;5007532;28;20392;-78
2022/02/18 04:12:55;;;;;;;12.32;3.17;;;8.60;80.10;;;;;;5013025;28;20026;-78
2022/02/18 04:15:27;;;;;;;12.40;3.20;;;8.60;80.20;;;;;;5012531;28;20034;-79
2022/02/18 04:17:52;;;;;;;10.75;2.47;;;8.60;80.20;;;;;;5008859;28;20026;-78
2022/02/18 04:20:18;;;;;;;14.45;3.42;;;8.60;80.10;;;;;;5014980;28;20105;-79
2022/02/18 04:22:44;;;;;;;13.93;3.28;;;8.70;80.10;;;;;;5010769;28;20417;-78
2022/02/18 04:25:09;;;;;;;14.70;3.20;;;8.70;80.20;;;;;;5012492;28;20033;-79
2022/02/18 04:27:35;;;;;;;9.93;2.88;;;8.60;80.30;;;;;;5009606;28;20029;-78
2022/02/18 04:30:02;;;;;;;11.60;2.97;;;8.60;80.50;;;;;;5013445;28;20034;-78
2022/02/18 04:32:27;;;;;;;12.95;2.78;;;8.60;80.60;;;;;;5004814;28;20033;-78
2022/02/18 04:34:53;;;;;;;13.27;3.22;;;8.60;80.50;;;;;;5008766;28;20034;-78
2022/02/18 04:37:18;;;;;;;12.65;3.08;;;8.60;80.70;;;;;;5008003;28;20021;-78
2022/02/18 04:39:44;;;;;;;10.50;2.80;;;8.60;81.00;;;;;;5003450;28;20030;-78
2022/02/18 04:42:09;;;;;;;19.85;3.88;;;8.60;81.00;;;;;;5020789;28;20032;-79
2022/02/18 04:44:35;;;;;;;11.38;2.75;;;8.50;81.20;;;;;;5008803;28;20100;-78
2022/02/18 04:47:00;;;;;;;17.35;4.05;;;8.60;81.90;;;;;;5018276;28;20014;-77
2022/02/18 04:49:26;;;;;;;16.70;3.70;;;8.60;81.40;;;;;;5010777;28;20034;-79
2022/02/18 04:51:54;;;;;;;10.85;2.63;;;8.50;81.50;;;;;;5020076;28;20030;-76
2022/02/18 04:54:19;;;;;;;16.98;3.53;;;8.50;81.60;;;;;;5010045;28;20080;-77
2022/02/18 04:56:45;;;;;;;16.40;3.72;;;8.50;81.70;;;;;;5009044;28;20023;-77
2022/02/18 04:59:12;;;;;;;14.52;2.92;;;8.50;82.10;;;;;;5013562;28;20092;-77
2022/02/18 05:01:37;;;;;;;15.55;3.03;;;8.50;81.90;;;;;;5008190;28;20064;-77
2022/02/18 05:04:03;;;;;;;11.57;3.20;;;8.50;81.80;;;;;;5010711;28;20053;-78
2022/02/18 05:06:29;;;;;;;12.43;2.63;;;8.60;81.80;;;;;;5016049;28;20034;-77
2022/02/18 05:08:54;;;;;;;13.45;2.90;;;8.60;81.70;;;;;;5007690;28;20135;-77
2022/02/18 05:11:19;;;;;;;16.02;3.50;;;8.60;81.70;;;;;;5022320;28;20150;-76
2022/02/18 05:13:45;;;;;;;12.45;3.20;;;8.60;81.80;;;;;;5016057;28;20023;-78
2022/02/18 05:16:10;;;;;;;12.48;3.50;;;8.60;81.70;;;;;;5013650;28;20416;-78
2022/02/18 05:18:37;;;;;;;18.35;3.67;;;8.50;81.80;;;;;;5009088;28;20104;-78
2022/02/18 05:21:03;;;;;;;13.95;3.38;;;8.50;82.00;;;;;;5016476;28;20376;-79
2022/02/18 05:23:28;;;;;;;16.50;3.30;;;8.50;82.70;;;;;;5016270;28;20030;-78
2022/02/18 05:25:54;;;;;;;16.02;3.53;;;8.60;82.10;;;;;;5020021;28;20038;-77
2022/02/18 05:28:19;;;;;;;14.43;3.55;;;8.50;82.20;;;;;;5003131;28;20047;-78
2022/02/18 05:30:45;;;;;;;13.18;3.10;;;8.50;82.30;;;;;;5005460;28;20481;-78
2022/02/18 05:33:12;;;;;;;18.13;4.43;;;8.50;82.30;;;;;;5018669;28;20014;-78
2022/02/18 05:35:39;;;;;;;17.65;3.92;;;8.50;82.40;;;;;;5009434;28;20546;-77
2022/02/18 05:38:04;;;;;;;17.92;4.05;;;8.50;82.50;;;;;;5017068;28;20103;-77
2022/02/18 05:40:30;;;;;;;16.85;3.85;;;8.60;82.50;;;;;;5011968;28;20026;-80
2022/02/18 05:42:55;;;;;;;18.02;3.97;;;8.50;82.50;;;;;;5010564;28;20121;-78
2022/02/18 05:45:21;;;;;;;18.73;3.95;;;8.50;82.60;;;;;;5009229;28;20064;-80
2022/02/18 05:47:47;;;;;;;15.60;3.92;;;8.50;82.80;;;;;;5006020;28;20428;-80
2022/02/18 05:50:12;;;;;;;21.15;4.15;;;8.50;82.80;;;;;;5003029;28;20494;-80
2022/02/18 05:52:39;;;;;;;16.75;4.25;;;8.50;82.80;;;;;;5011434;28;20492;-80
2022/02/18 05:55:06;;;;;;;16.35;3.97;;;8.50;82.90;;;;;;5010844;28;20128;-80
2022/02/18 05:57:32;;;;;;;16.02;3.70;;;8.50;83.10;;;;;;5010271;28;20041;-81
2022/02/18 05:59:57;;;;;;;19.92;4.30;;;8.50;83.30;;;;;;5006263;28;20026;-80
2022/02/18 06:02:23;;;;;;;22.33;4.78;;;8.40;83.50;;;;;;5007322;28;20025;-79
2022/02/18 06:04:48;;;;;;;16.08;4.32;;;8.40;83.70;;;;;;5009753;28;20049;-78
2022/02/18 06:07:17;;;;;;;12.80;3.45;;;8.40;83.70;;;;;;5007395;28;20028;-79
2022/02/18 06:09:45;;;;;;;14.15;3.92;;;8.50;83.60;;;;;;5002800;28;20053;-78
2022/02/18 06:12:11;;;;;;;19.40;3.80;;;8.50;83.40;;;;;;5005817;28;20030;-79
2022/02/18 06:14:38;;;;;;;18.77;4.25;;;8.50;83.40;;;;;;5004386;28;20133;-77
2022/02/18 06:17:08;;;;;;;15.50;3.83;;;8.50;83.70;;;;;;5006758;28;20469;-77
2022/02/18 06:19:34;;;;;;;16.20;3.80;;;8.50;83.70;;;;;;5004327;28;20025;-78
2022/02/18 06:21:59;;;;;;;15.35;3.53;;;8.50;83.60;;;;;;5010874;28;20033;-78
2022/02/18 06:24:25;;;;;;;14.02;3.33;;;8.60;83.40;;;;;;5011180;28;20046;-79
2022/02/18 06:26:50;;;;;;;18.13;3.88;;;8.60;83.30;;;;;;5007346;28;20022;-78
2022/02/18 06:29:16;;;;;;;18.73;4.85;;;8.60;83.10;;;;;;5008120;28;20030;-78
2022/02/18 06:31:42;;;;;;;18.35;3.78;;;8.60;83.00;;;;;;5000552;28;20026;-78
2022/02/18 06:34:07;;;;;;;23.90;5.18;;;8.60;83.00;;;;;;5007780;28;20030;-78
2022/02/18 06:36:33;;;;;;;19.27;4.18;;;8.60;83.00;;;;;;5007239;28;20607;-78
2022/02/18 06:38:59;;;;;;;16.48;3.72;;;8.60;83.10;;;;;;5009175;28;20172;-77
2022/02/18 06:41:24;;;;;;;16.15;3.75;;;8.60;83.10;;;;;;5007070;28;20113;-77
2022/02/18 06:43:50;;;;;;;23.00;5.15;;;8.60;83.20;;;;;;5007126;28;20088;-77
2022/02/18 06:46:16;;;;;;;18.35;3.85;;;8.60;83.40;;;;;;5002273;28;20039;-78
2022/02/18 06:48:41;;;;;;;14.30;3.75;;;8.60;83.40;;;;;;5004781;28;20037;-80
2022/02/18 06:51:07;;;;;;;14.18;3.28;;;8.60;83.40;;;;;;5005891;28;20381;-78
2022/02/18 06:53:33;;;;;;;19.85;3.80;;;8.60;83.60;;;;;;5006453;28;20026;-78
2022/02/18 06:56:00;;;;;;;16.08;3.67;;;8.60;83.70;;;;;;5008125;28;20072;-78
2022/02/18 06:58:26;;;;;;;21.65;4.53;;;8.50;84.10;;;;;;5009885;28;20092;-78
2022/02/18 07:00:52;;;;;;;16.05;3.40;;;8.50;84.20;;;;;;5008171;28;20110;-77
2022/02/18 07:03:21;;;;;;;16.88;3.35;;;8.50;84.40;;;;;;5005640;28;20100;-78
2022/02/18 07:05:48;;;;;;;14.07;3.40;;;8.50;84.70;;;;;;5007652;28;20041;-78
2022/02/18 07:08:15;;;;;;;16.65;3.58;;;8.50;85.00;;;;;;5011170;28;20028;-78
2022/02/18 07:10:41;;;;;;;16.23;3.38;;;8.50;85.10;;;;;;5007446;28;20049;-78
2022/02/18 07:13:07;;;;;;;14.43;3.42;;;8.50;85.10;;;;;;5009042;28;20029;-78
2022/02/18 07:15:33;;;;;;;14.27;3.53;;;8.50;85.30;;;;;;5016002;28;20027;-78
2022/02/18 07:18:01;;;;;;;23.25;3.90;;;8.50;85.40;;;;;;5004650;28;20026;-77
2022/02/18 07:20:27;;;;;;;19.15;4.20;;;8.50;85.90;;;;;;5011248;28;20029;-80
2022/02/18 07:22:53;;;;;;;16.25;4.05;;;8.50;86.10;;;;;;5004087;28;20118;-78
2022/02/18 07:25:20;;;;;;;17.50;3.90;;;8.50;86.10;;;;;;5012999;28;20467;-78
2022/02/18 07:27:46;;;;;;;22.33;4.97;;;8.50;86.30;;;;;;5009868;28;20041;-76
2022/02/18 07:30:13;;;;;;;18.40;3.92;;;8.50;86.60;;;;;;5014636;28;20025;-76
2022/02/18 07:32:39;;;;;;;21.83;4.35;;;8.50;86.60;;;;;;5006150;28;20120;-77
2022/02/18 07:35:06;;;;;;;22.42;4.75;;;8.50;86.80;;;;;;5010175;28;20116;-81
2022/02/18 07:37:33;;;;;;;13.93;3.08;;;8.50;87.40;;;;;;5004316;28;20893;-79
2022/02/18 07:39:58;;;;;;;19.02;3.60;;;8.50;87.70;;;;;;5007718;28;20513;-76
2022/02/18 07:42:24;;;;;;;16.02;4.30;;;8.50;87.70;;;;;;5012601;28;20030;-80
2022/02/18 07:44:50;;;;;;;12.73;2.75;;;8.60;87.90;;;;;;5011954;28;20133;-80
2022/02/18 07:47:16;;;;;;;13.00;3.00;;;8.60;88.00;;;;;;5015637;28;20022;-82
2022/02/18 07:49:43;;;;;;;14.80;3.63;;;8.70;88.10;;;;;;5010410;28;20026;-81
2022/02/18 07:52:09;;;;;;;15.75;4.63;;;8.60;88.70;;;;;;5002056;28;20108;-84
2022/02/18 07:54:35;;;;;;;16.00;3.92;;;8.60;88.30;;;;;;5012658;28;20458;-81
2022/02/18 07:57:00;;;;;;;13.38;3.88;;;8.60;88.80;;;;;;5006173;28;20511;-81
2022/02/18 07:59:26;;;;;;;12.60;3.65;;;8.60;89.10;;;;;;5003941;28;20026;-79
2022/02/18 08:01:51;;;;;;;15.93;4.97;;;8.60;89.20;;;;;;5009290;28;20033;-78
2022/02/18 08:04:17;;;;;;;18.58;4.82;;;8.60;89.40;;;;;;5011111;28;20035;-80
2022/02/18 08:06:42;;;;;;;13.55;3.95;;;8.60;89.90;;;;;;5007608;28;20030;-81
2022/02/18 08:09:08;;;;;;;16.65;4.32;;;8.60;89.90;;;;;;5012112;28;20030;-81
2022/02/18 08:11:33;;;;;;;10.43;3.33;;;8.70;89.90;;;;;;5008324;28;20053;-79
2022/02/18 08:13:59;;;;;;;15.43;3.97;;;8.70;90.00;;;;;;5005600;28;20076;-78
2022/02/18 08:16:27;;;;;;;20.85;5.10;;;8.70;89.80;;;;;;5012040;28;20025;-78
2022/02/18 08:18:54;;;;;;;16.30;4.30;;;8.70;90.00;;;;;;5008668;28;20053;-79
2022/02/18 08:21:19;;;;;;;16.42;4.15;;;8.80;90.10;;;;;;5011811;28;20057;-78
2022/02/18 08:23:46;;;;;;;16.25;4.25;;;8.80;90.10;;;;;;5009983;28;20060;-78
2022/02/18 08:26:12;;;;;;;13.63;4.43;;;8.80;90.00;;;;;;5012094;28;20026;-79
2022/02/18 08:28:37;;;;;;;17.48;4.28;;;8.90;90.00;;;;;;5010822;28;20044;-80
2022/02/18 08:31:03;;;;;;;21.08;4.32;;;8.90;90.00;;;;;;5013105;28;20033;-79
2022/02/18 08:33:29;;;;;;;12.98;4.10;;;8.90;90.00;;;;;;5017737;28;20033;-78
2022/02/18 08:35:56;;;;;;;10.18;3.20;;;8.90;90.00;;;;;;5024283;28;20384;-77
2022/02/18 08:38:21;;;;;;;12.55;3.25;;;9.00;90.00;;;;;;5024696;28;20657;-77
2022/02/18 08:40:47;;;;;;;13.15;3.00;;;9.10;89.90;;;;;;5012251;28;20029;-80
2022/02/18 08:43:12;;;;;;;18.55;4.35;;;9.10;89.70;;;;;;5012098;28;20672;-79
2022/02/18 08:45:38;;;;;;;11.35;3.38;;;9.20;89.80;;;;;;5009443;28;20042;-79
2022/02/18 08:48:04;;;;;;;13.50;4.28;;;9.20;89.80;;;;;;5008037;28;20033;-78
2022/02/18 08:50:29;;;;;;;16.92;4.95;;;9.20;89.80;;;;;;5011490;28;20041;-81
2022/02/18 08:52:55;;;;;;;19.30;4.80;;;9.20;89.90;;;;;;5004160;28;20578;-78
2022/02/18 08:55:22;;;;;;;19.25;5.32;;;9.30;90.00;;;;;;5014180;28;20037;-78
2022/02/18 08:57:48;;;;;;;23.02;5.97;;;9.20;90.10;;;;;;5000816;28;20018;-80
2022/02/18 09:00:17;;;;;;;13.63;4.13;;;9.20;90.20;;;;;;5005334;28;20026;-79
2022/02/18 09:02:43;;;;;;;14.13;4.10;;;9.30;90.30;;;;;;5010119;28;20105;-79
2022/02/18 09:05:10;;;;;;;13.82;4.68;;;9.20;90.40;;;;;;5008134;28;20425;-81
2022/02/18 09:07:35;;;;;;;13.18;3.58;;;9.30;90.40;;;;;;5010662;28;20022;-80
2022/02/18 09:10:01;;;;;;;15.68;4.13;;;9.30;90.40;;;;;;5015462;28;20033;-79
2022/02/18 09:12:27;;;;;;;16.20;4.07;;;9.40;90.40;;;;;;5017037;28;20040;-80
2022/02/18 09:14:53;;;;;;;11.13;3.78;;;9.40;90.40;;;;;;5014114;28;20068;-82
2022/02/18 09:17:19;;;;;;;13.80;4.57;;;9.50;90.40;;;;;;5007622;28;20041;-80
2022/02/18 09:19:45;;;;;;;18.20;4.95;;;9.50;90.60;;;;;;5008875;28;20033;-79
2022/02/18 09:22:11;;;;;;;14.38;4.13;;;9.50;90.60;;;;;;5008813;28;20091;-78
2022/02/18 09:24:37;;;;;;;10.77;3.90;;;9.60;90.70;;;;;;5004503;28;20034;-79
2022/02/18 09:27:03;;;;;;;13.02;5.00;;;9.70;90.70;;;;;;5008187;28;20032;-81
2022/02/18 09:29:28;;;;;;;17.10;5.93;;;9.70;90.70;;;;;;5010172;28;20461;-79
2022/02/18 09:31:54;;;;;;;13.20;4.20;;;9.70;90.80;;;;;;5006344;28;20083;-78
2022/02/18 09:34:21;;;;;;;13.07;4.10;;;9.80;90.80;;;;;;5009346;28;20548;-78
2022/02/18 09:36:47;;;;;;;10.75;4.32;;;9.90;90.80;;;;;;5004067;28;20033;-79
2022/02/18 09:39:13;;;;;;;11.82;3.88;;;9.90;90.90;;;;;;5008934;28;20041;-79
2022/02/18 09:41:41;;;;;;;10.82;4.05;;;10.00;90.80;;;;;;5008836;28;20017;-80
2022/02/18 09:44:09;;;;;;;9.75;4.20;;;10.10;90.90;;;;;;5015877;28;20034;-79
2022/02/18 09:46:38;;;;;;;8.48;3.55;;;10.10;90.80;;;;;;5010950;28;20496;-80
2022/02/18 09:49:04;;;;;;;5.38;2.60;;;10.20;90.90;;;;;;5008042;28;20033;-79
2022/02/18 09:51:31;;;;;;;10.13;4.53;;;10.20;90.80;;;;;;5009016;28;20064;-80
2022/02/18 09:53:58;;;;;;;8.52;4.20;;;10.30;90.70;;;;;;5010178;28;20405;-79
2022/02/18 09:56:24;;;;;;;6.57;3.15;;;10.40;90.80;;;;;;5011168;28;20103;-79
2022/02/18 09:58:51;;;;;;;8.23;3.40;;;10.40;90.80;;;;;;5006716;28;20531;-80
2022/02/18 10:01:18;;;;;;;6.80;3.38;;;10.40;90.70;;;;;;5007049;28;20026;-81
2022/02/18 10:03:43;;;;;;;7.60;3.97;;;10.50;90.70;;;;;;5008570;28;20022;-80
2022/02/18 10:06:09;;;;;;;9.05;4.50;;;10.50;90.70;;;;;;5007450;28;20555;-80
2022/02/18 10:08:45;;;;;;;7.00;3.33;;;10.50;90.80;;;;;;5007756;28;20141;-79
2022/02/18 10:11:11;;;;;;;6.07;3.95;;;10.50;90.90;;;;;;5007392;28;20037;-80
2022/02/18 10:13:39;;;;;;;6.25;3.95;;;10.60;90.90;;;;;;5007173;28;20022;-79
2022/02/18 10:16:14;;;;;;;4.95;3.40;;;10.60;90.90;;;;;;5010637;28;20735;-77
2022/02/18 10:18:50;;;;;;;3.65;2.60;;;10.70;91.00;;;;;;5007221;28;20064;-78
2022/02/18 10:21:31;;;;;;;5.97;3.60;;;10.70;91.00;;;;;;5009861;28;20036;-78
2022/02/18 10:24:10;;;;;;;5.63;3.22;;;10.80;91.00;;;;;;5006890;28;20050;-79
2022/02/18 10:26:38;;;;;;;3.25;2.20;;;10.80;90.90;;;;;;5007426;28;20197;-78
2022/02/18 10:29:06;;;;;;;5.65;2.90;;;10.90;90.80;;;;;;5010425;28;20046;-78
2022/02/18 10:31:32;;;;;;;4.18;3.05;;;10.90;90.80;;;;;;5009559;28;20113;-77
2022/02/18 10:34:09;;;;;;;2.85;2.38;;;11.00;90.90;;;;;;5009675;28;20355;-78
2022/02/18 10:36:45;;;;;;;4.35;2.50;;;11.00;90.80;;;;;;5009304;28;20026;-78
2022/02/18 10:39:29;;;;;;;3.28;2.88;;;11.10;90.80;;;;;;5009321;28;20025;-78
2022/02/18 10:42:00;;;;;;;3.33;2.50;;;11.10;90.80;;;;;;5006606;28;20393;-78
2022/02/18 10:44:30;;;;;;;3.20;1.90;;;11.10;90.70;;;;;;5008967;28;20026;-78
2022/02/18 10:46:57;;;;;;;6.28;2.90;;;11.20;90.70;;;;;;5007101;28;20112;-78
2022/02/18 10:49:24;;;;;;;3.55;2.58;;;11.20;90.70;;;;;;5014081;28;20037;-79
2022/02/18 10:51:50;;;;;;;3.65;2.40;;;11.20;90.70;;;;;;5007690;28;20440;-80
2022/02/18 10:54:16;;;;;;;3.28;1.95;;;11.20;90.80;;;;;;5009463;28;20065;-79
2022/02/18 10:56:42;;;;;;;2.25;1.90;;;11.30;90.70;;;;;;5005186;28;20045;-78
2022/02/18 10:59:08;;;;;;;2.20;1.77;;;11.30;90.60;;;;;;5007602;28;20038;-80
2022/02/18 11:01:43;;;;;;;2.20;1.80;;;11.30;90.60;;;;;;5009441;28;20037;-82
2022/02/18 11:04:10;;;;;;;3.45;2.30;;;11.40;90.50;;;;;;5003796;28;20026;-80
2022/02/18 11:06:37;;;;;;;2.25;1.95;;;11.40;90.50;;;;;;5003513;28;20041;-82
2022/02/18 11:09:09;;;;;;;3.30;2.10;;;11.40;90.40;;;;;;5007308;28;20038;-77
2022/02/18 11:11:40;;;;;;;2.22;1.92;;;11.50;90.40;;;;;;5004550;28;20439;-78
2022/02/18 11:14:13;;;;;;;3.40;2.03;;;11.50;90.30;;;;;;5009980;28;20026;-79
2022/02/18 11:16:41;;;;;;;3.97;2.00;;;11.50;90.30;;;;;;5007850;28;20030;-80
2022/02/18 11:19:07;;;;;;;2.97;1.83;;;11.60;90.20;;;;;;5008817;28;20014;-78
2022/02/18 11:21:32;;;;;;;2.45;1.90;;;11.60;90.20;;;;;;5009483;28;20117;-80
2022/02/18 11:24:00;;;;;;;2.00;1.70;;;11.60;90.10;;;;;;5012881;28;20052;-80
2022/02/18 11:26:28;;;;;;;3.30;1.80;;;11.70;90.10;;;;;;5009087;28;20724;-81
2022/02/18 11:28:54;;;;;;;3.22;2.10;;;11.70;90.00;;;;;;5010895;28;20112;-82
2022/02/18 11:31:33;;;;;;;2.88;2.00;;;11.70;89.80;;;;;;5010185;28;20060;-81
2022/02/18 11:34:05;;;;;;;3.22;1.85;;;11.80;89.50;;;;;;5010039;28;20034;-81
2022/02/18 11:36:50;;;;;;;;;;;11.80;89.30;;;;;;5003596;28;20033;-81
2022/02/18 11:39:55;;;;;;;3.10;1.92;;;11.90;89.00;;;;;;5005665;28;20435;-82
2022/02/18 11:43:01;;;;;;;1.67;1.38;;;11.90;88.70;;;;;;5002054;28;20026;-82
2022/02/18 11:45:27;;;;;;;1.33;1.15;;;12.00;88.50;;;;;;4981001;28;20165;-83
2022/02/18 11:47:53;;;;;;;1.60;1.50;;;12.00;88.20;;;;;;5009751;28;20640;-82
2022/02/18 11:50:26;;;;;;;1.65;1.40;;;12.00;88.00;;;;;;5010700;28;20026;-82
2022/02/18 11:52:52;;;;;;;2.13;1.50;;;12.10;87.80;;;;;;5012128;28;20046;-82
2022/02/18 11:55:38;;;;;;;2.28;1.42;;;12.10;87.60;;;;;;5010140;28;20062;-83
2022/02/18 11:58:08;;;;;;;1.40;1.30;;;12.10;87.40;;;;;;5009439;28;20040;-81
2022/02/18 12:00:49;;;;;;;1.52;1.25;;;12.20;87.30;;;;;;5014583;28;20037;-82
2022/02/18 12:03:20;;;;;;;1.23;1.10;;;12.20;87.20;;;;;;5006803;28;20030;-85
2022/02/18 12:06:04;;;;;;;1.10;1.05;;;12.20;87.00;;;;;;5008179;28;20030;-82
2022/02/18 12:08:32;;;;;;;1.27;1.15;;;12.30;86.80;;;;;;5008940;28;20785;-82
2022/02/18 12:10:58;;;;;;;3.28;1.50;;;12.30;86.50;;;;;;5012134;28;20028;-84
2022/02/18 12:13:23;;;;;;;1.98;1.17;;;12.30;86.20;;;;;;5010610;28;20447;-83
2022/02/18 12:15:49;;;;;;;1.55;1.00;;;12.40;86.10;;;;;;5014460;28;20551;-83
2022/02/18 12:18:24;;;;;;;1.88;1.20;;;12.40;86.00;;;;;;5010640;28;20384;-81
2022/02/18 12:21:06;;;;;;;1.25;1.10;;;12.50;85.80;;;;;;5009238;28;20030;-83
2022/02/18 12:23:34;;;;;;;2.22;1.13;;;12.50;85.60;;;;;;5004701;28;20032;-82
2022/02/18 12:26:24;;;;;;;1.85;1.20;;;12.50;85.40;;;;;;4998897;28;20958;-81
2022/02/18 12:28:51;;;;;;;1.88;1.40;;;12.60;85.20;;;;;;4999566;28;20034;-82
2022/02/18 12:31:17;;;;;;;1.65;1.27;;;12.60;84.90;;;;;;5003605;28;20054;-83
2022/02/18 12:33:44;;;;;;;2.20;1.50;;;12.60;84.80;;;;;;4998513;28;20112;-82
2022/02/18 12:36:14;;;;;;;1.30;1.20;;;12.60;84.60;;;;;;4998455;28;20026;-82
2022/02/18 12:38:41;;;;;;;1.55;1.35;;;12.60;84.60;;;;;;4997431;28;20030;-81
2022/02/18 12:41:15;;;;;;;2.13;1.40;;;12.60;84.40;;;;;;5005344;28;20115;-81
2022/02/18 12:43:41;;;;;;;1.17;1.08;;;12.70;84.50;;;;;;5005688;28;20429;-79
2022/02/18 12:46:08;;;;;;;1.42;1.33;;;12.70;84.40;;;;;;5010723;28;20033;-81
2022/02/18 12:48:38;;;;;;;1.65;1.30;;;12.70;84.30;;;;;;5013784;28;20087;-81